• Join FlightAware (Why Join?)
  • Login
  • US Flag 
03:56PM EDT


 

Airport Tracker/Info


-or-


 

Live Flight TrackerFlight Track Log ✈ AWI3754 ✈ 09-May-2013 ✈ KAGS - KCLT

Flight Track Log - Related Links

Times and Time Zones

All times are in EDT time to prevent confusion due to time zone crossing. See the AWI3754 flight status page for this flight to view local times or setup timezone preferences in your user account.

Time Position Orientation Groundspeed Altitude Reporting Facility
EDT Latitude Longitude Course Direction KTS MPH feet Rate Location/Type
07:20PM 33.5058 -81.9983 North 247 284 4,000  Level Atlanta Center
07:21PM 33.5849 -82.0000 North  Level FlightAware Approximate
07:21PM 33.5772 -82.0117 351° North 260 299 6,600  Level Atlanta Center
07:22PM 33.6573 -82.0172 346° North  Level FlightAware Approximate
07:22PM 33.6547 -82.0272 351° North 265 305 8,900  Level Atlanta Center
07:23PM 33.7292 -82.0387 346° North  Level FlightAware Approximate
07:23PM 33.7300 -82.0431 350° North 265 305 11,200  Level Atlanta Center
07:24PM 33.8016 -82.0570 351° North  Level FlightAware Approximate
07:24PM 33.8139 -82.0611 350° North 286 329 12,000  Level Atlanta Center
07:25PM 33.8747 -82.0716 351° North  Level FlightAware Approximate
07:25PM 33.9081 -82.0814 350° North 318 366 12,000  Level Atlanta Center
07:26PM 33.9480 -82.0833 North  Level FlightAware Approximate
07:26PM 34.0106 -82.1017 351° North 335 386 12,000  Level Atlanta Center
07:27PM 34.1028 -82.1222 350° North 335 386 12,000  Level Atlanta Center
07:28PM 34.1928 -82.1403 351° North 335 386 12,000  Level Atlanta Center
07:29PM 34.2803 -82.1256 North 315 362 12,000  Level Atlanta Center
07:30PM 34.3436 -82.0386 49° Northeast 300 345 12,000  Level Atlanta Center
07:31PM 34.4028 -81.9617 47° Northeast 305 351 12,000  Level Atlanta Center
07:32PM 34.4642 -81.8872 45° Northeast 305 351 12,000  Level Atlanta Center
07:33PM 34.5253 -81.8050 48° Northeast 316 364 12,000  Level Atlanta Center
07:34PM 34.5703 -81.7533 43° Northeast 320 368 12,000  Level Atlanta Center
07:34PM 34.5822 -81.7303 58° Northeast 305 351 12,000  Level Atlanta Center
07:35PM 34.6294 -81.6811 41° Northeast 309 356 12,000  Level Atlanta Center
07:35PM 34.6456 -81.6553 53° Northeast 305 351 12,000  Level Atlanta Center
07:36PM 34.7006 -81.5881 45° Northeast 305 351 12,000  Level Atlanta Center
07:37PM 34.7575 -81.5131 47° Northeast 339 390 12,000 -300 Level Atlanta Center
07:38PM 34.8247 -81.4300 45° Northeast 340 391 11,500 -960 Descending Atlanta Center
07:39PM 34.8856 -81.3497 47° Northeast 327 376 10,100 -720 Descending Atlanta Center
07:40PM 34.9522 -81.2589 48° Northeast 322 371 10,000 -60 Descending Atlanta Center
07:41PM 35.0031 -81.1964 45° Northeast 331 381 10,000  Level Atlanta Center
07:41PM 35.0172 -81.1781 47° Northeast 328 377 10,000 -900 Level Atlanta Center
07:42PM 35.0597 -81.1208 48° Northeast 289 333 9,100 -1,020 Descending Atlanta Center
07:42PM 35.0697 -81.1078 47° Northeast 300 345 9,000 -120 Descending Atlanta Center
07:43PM 35.1189 -81.0653 35° Northeast 276 318 9,000  Level Atlanta Center
07:44PM 35.1961 -81.0703 357° North 238 274 9,000 -720 Level Atlanta Center
07:45PM 35.2631 -81.0753 357° North 240 276 7,600 -1,440 Descending Atlanta Center
07:46PM 35.3281 -81.0833 354° North 230 265 6,100 -1,320 Descending Atlanta Center
07:47PM 35.3883 -81.0708 10° North 235 270 5,000 -720 Descending Atlanta Center
07:48PM 35.4075 -81.0067 70° East 190 219 4,700 -300 Descending Atlanta Center